Архив погоды в Курске

Метеограмма Курск
Среда, 19 Июня
Время местн. Темп Ветер Видим Явления Облачность нижн/средн/верх Атм. давл. Влжн Точка росы ВНГО R Сост. почвы Tg s
Напр Скр Прв ур.ст ур.м изм
15:00 +27.1° С 2 - 10 км - переменная облачность 741 762 -0.2 43% +13.5° 1.5 км - - - -
12:00 +25.7° С-В 3 - 10 км - переменная облачность 741 762 +0.2 44% +12.6° 1.5 км - - - -
09:00 +22.9° С,С-В 2 - 10 км - ясно 741 762 +0.6 58% +14.3° более 2.5 км 0 Влажная (без луж) - -
06:00 +19.2° С 1 - 10 км - ясно 740 762 +0.4 75% +14.6° более 2.5 км - - - -
03:00 +19.3° С 2 - 10 км - ясно 740 762 +0.2 78% +15.3° более 2.5 км - - - -
00:00 +20° С-З 1 - 10 км - ясно 740 761 +0.5 78% +16.1° более 2.5 км - - - -
Вторник, 18 Июня
Время местн. Темп Ветер Видим Явления Облачность нижн/средн/верх Атм. давл. Влжн Точка росы ВНГО R Сост. почвы Tg s
Напр Скр Прв ур.ст ур.м изм
21:00 +23° С 2 - 10 км - переменная облачность 739 761 +0.6 68% +16.7° 1 км 14 - - -
18:00 +27.1° З,С-З 3 - 10 км - переменная облачность 739 760 -0.4 48% +15.1° 1 км - - - -
15:00 +24.5° Ю,Ю-З 1 - 10 км гроза {ливневые осадки} облачно с прояснениями 739 760 -0.8 69% +18.5° 1 км - - - -
12:00 +26.9° Ю-З 3 - 10 км - облачно с прояснениями 740 761 -0.2 55% +17.1° 1 км - - - -
09:00 +23.4° Ю,Ю-З 3 - 10 км - облачно с прояснениями 740 761 -0.6 58% +14.6° 1 км 0 Сухая (без трещин) - -
06:00 +17.9° С-В 2 - 10 км - облачно 741 762 0 74% +13.2° 1 км - - - -
03:00 +18.6° Ю 1 - 10 км - переменная облачность 741 762 +0.1 66% +12.1° - - - - -
00:00 +19.2° В,Ю-В 1 - 10 км - ясно 741 762 0 68% +13.1° более 2.5 км - - - -
Понедельник, 17 Июня
Время местн. Темп Ветер Видим Явления Облачность нижн/средн/верх Атм. давл. Влжн Точка росы ВНГО R Сост. почвы Tg s
Напр Скр Прв ур.ст ур.м изм
21:00 +22.1° С 1 - 10 км - переменная облачность 741 762 0 52% +11.9° более 2.5 км 0 - - -
18:00 +25.7° С,С-З 1 - 10 км - облачно с прояснениями 741 762 -0.2 40% +11.2° 1 км - - - -
15:00 +26.1° С 1 - 10 км - переменная облачность 741 762 -0.5 34% +8.9° 1 км - - - -
12:00 +25.1° З,С-З 1 - 10 км - облачно с прояснениями 741 763 -0.2 40% +10.7° 1 км - - - -
09:00 +22.5° З,С-З 1 - 10 км - переменная облачность 742 763 +0.5 58% +13.8° 1.5 км 0 Сухая (без трещин) - -
06:00 +16.1° штиль 0 - 10 км - ясно 741 763 +0.4 88% +14.1° более 2.5 км - - - -
03:00 +15.3° С,С-З 1 - 10 км - ясно 741 763 +0.4 92% +14° более 2.5 км - - - -
00:00 +16.4° С-З 1 - 10 км - ясно 740 762 +0.5 93% +15.3° более 2.5 км - - - -
Воскресенье, 16 Июня
Время местн. Темп Ветер Видим Явления Облачность нижн/средн/верх Атм. давл. Влжн Точка росы ВНГО R Сост. почвы Tg s
Напр Скр Прв ур.ст ур.м изм
21:00 +20.2° С,С-В 1 - 10 км - переменная облачность 740 761 +0.5 75% +15.7° 1 км 2 - - -
18:00 +23.1° С-В 1 - 10 км - облачно с прояснениями 739 760 -0.2 62% +15.3° 1.5 км - - - -
12:00 +21.3° С-В 2 - 10 км - преимущественно облачно 739 761 +0.4 79% +17.5° 1 км - - - -
09:00 +18.8° С 1 - 1 км дымка {туман} облачно 739 760 +0.4 93% +17.7° 600 м 0 Сухая (без трещин) - -